Time;durP1;ratioP1;P1;durP2;ratioP2;P2;SDS_P1;SDS_P2;PMS_P1;PMS_P2;Temp;Humidity;BMP_temperature;BMP_pressure;BME280_temperature;BME280_humidity;BME280_pressure;Samples;Min_cycle;Max_cycle;Signal;HPM_P1;HPM_P2
2021/01/26 00:00:20;;;;;;;12.27;5.80;;;2.70;99.90;;;;;;4912048;29;20032;-71
2021/01/26 00:02:46;;;;;;;11.48;5.55;;;2.80;99.90;;;;;;4911187;29;20036;-70
2021/01/26 00:05:12;;;;;;;14.65;6.65;;;2.80;99.90;;;;;;4912230;29;20039;-70
2021/01/26 00:07:39;;;;;;;10.38;5.82;;;2.80;99.90;;;;;;4912208;29;20028;-71
2021/01/26 00:10:07;;;;;;;12.77;6.38;;;2.70;99.90;;;;;;4911057;29;20063;-70
2021/01/26 00:12:32;;;;;;;17.10;7.15;;;2.70;99.90;;;;;;4912205;29;20497;-70
2021/01/26 00:14:58;;;;;;;15.63;6.38;;;2.70;99.90;;;;;;4912033;29;20078;-71
2021/01/26 00:17:24;;;;;;;13.10;6.53;;;2.80;99.90;;;;;;4911691;29;20032;-71
2021/01/26 00:19:50;;;;;;;16.88;7.20;;;2.70;99.90;;;;;;4929713;29;20062;-71
2021/01/26 00:22:15;;;;;;;16.02;7.03;;;2.70;99.90;;;;;;4930786;29;20029;-71
2021/01/26 00:24:42;;;;;;;12.07;5.88;;;2.70;99.90;;;;;;4930946;29;20039;-71
2021/01/26 00:27:08;;;;;;;17.05;6.75;;;2.70;99.90;;;;;;4930898;29;20035;-70
2021/01/26 00:29:34;;;;;;;9.98;5.57;;;2.70;99.90;;;;;;4930596;29;20032;-69
2021/01/26 00:31:59;;;;;;;8.95;5.63;;;2.70;99.90;;;;;;4930785;29;21150;-70
2021/01/26 00:34:25;;;;;;;13.10;6.68;;;2.80;99.90;;;;;;4929969;29;20055;-71
2021/01/26 00:36:51;;;;;;;10.70;6.07;;;2.80;99.90;;;;;;4930571;29;20032;-71
2021/01/26 00:39:18;;;;;;;13.02;6.28;;;2.80;99.90;;;;;;4930509;29;20096;-70
2021/01/26 00:41:43;;;;;;;9.15;5.10;;;2.80;99.90;;;;;;4930215;29;20035;-71
2021/01/26 00:44:09;;;;;;;21.70;8.45;;;2.70;99.90;;;;;;4930643;29;20032;-70
2021/01/26 00:46:35;;;;;;;11.60;5.57;;;2.70;99.90;;;;;;4930634;29;20047;-70
2021/01/26 00:49:01;;;;;;;14.20;6.07;;;2.70;99.90;;;;;;4929594;29;20032;-69
2021/01/26 00:51:27;;;;;;;10.68;5.82;;;2.70;99.90;;;;;;4913055;29;20056;-69
2021/01/26 00:53:52;;;;;;;11.75;5.63;;;2.70;99.90;;;;;;4930252;29;20123;-70
2021/01/26 00:56:18;;;;;;;16.05;7.32;;;2.70;99.90;;;;;;4929819;29;20036;-70
2021/01/26 00:58:45;;;;;;;12.07;6.88;;;2.70;99.90;;;;;;4930291;29;20075;-70
2021/01/26 01:01:11;;;;;;;16.73;6.80;;;2.70;99.90;;;;;;4930514;29;20036;-71
2021/01/26 01:03:37;;;;;;;14.25;7.38;;;2.70;99.90;;;;;;4928464;29;20063;-70
2021/01/26 01:06:02;;;;;;;19.40;6.40;;;2.70;99.90;;;;;;4929514;29;20028;-70
2021/01/26 01:08:28;;;;;;;13.43;6.80;;;2.70;99.90;;;;;;4929991;29;20031;-70
2021/01/26 01:10:54;;;;;;;15.35;6.07;;;2.70;99.90;;;;;;4929685;29;20036;-69
2021/01/26 01:13:20;;;;;;;14.18;6.63;;;2.70;99.90;;;;;;4929691;29;20032;-70
2021/01/26 01:15:46;;;;;;;13.50;7.10;;;2.70;99.90;;;;;;4929673;29;20036;-70
2021/01/26 01:18:12;;;;;;;13.38;6.30;;;2.70;99.90;;;;;;4929571;29;20060;-70
2021/01/26 01:20:38;;;;;;;14.27;7.32;;;2.70;99.90;;;;;;4930127;29;20024;-70
2021/01/26 01:23:04;;;;;;;12.23;6.47;;;2.70;99.90;;;;;;4929655;29;20035;-70
2021/01/26 01:25:30;;;;;;;24.42;7.65;;;2.70;99.90;;;;;;4929792;29;20115;-70
2021/01/26 01:27:56;;;;;;;16.67;7.60;;;2.70;99.90;;;;;;4929800;29;20035;-70
2021/01/26 01:30:25;;;;;;;12.73;6.57;;;2.70;99.90;;;;;;4929289;29;20029;-70
2021/01/26 01:32:51;;;;;;;17.20;7.63;;;2.70;99.90;;;;;;4929346;29;20035;-70
2021/01/26 01:35:17;;;;;;;16.05;7.60;;;2.70;99.90;;;;;;4929627;29;20421;-71
2021/01/26 01:37:43;;;;;;;26.88;7.15;;;2.70;99.90;;;;;;4929298;29;20028;-70
2021/01/26 01:40:12;;;;;;;17.20;7.90;;;2.70;99.90;;;;;;4912425;29;20044;-70
2021/01/26 01:42:38;;;;;;;17.52;7.78;;;2.70;99.90;;;;;;4929497;29;20032;-70
2021/01/26 01:45:05;;;;;;;13.20;6.15;;;2.70;99.90;;;;;;4929297;29;20028;-70
2021/01/26 01:47:39;;;;;;;16.35;7.07;;;2.70;99.90;;;;;;4929181;29;20135;-69
2021/01/26 01:50:10;;;;;;;17.20;8.07;;;2.70;99.90;;;;;;4929438;29;20035;-69
2021/01/26 01:52:37;;;;;;;13.30;7.90;;;2.70;99.90;;;;;;4929092;29;20087;-70
2021/01/26 01:55:10;;;;;;;13.75;7.88;;;2.60;99.90;;;;;;4929193;29;20024;-70
2021/01/26 01:57:51;;;;;;;17.15;8.98;;;2.70;99.90;;;;;;4929322;29;20097;-70
2021/01/26 02:00:19;;;;;;;17.38;8.75;;;2.70;99.90;;;;;;4928648;29;20552;-70
2021/01/26 02:02:51;;;;;;;21.70;8.43;;;2.60;99.90;;;;;;4928873;29;20388;-70
2021/01/26 02:05:17;;;;;;;20.17;7.18;;;2.70;99.90;;;;;;4928711;29;20032;-70
2021/01/26 02:07:43;;;;;;;12.65;5.85;;;2.70;99.90;;;;;;4929184;29;20427;-70
2021/01/26 02:10:11;;;;;;;15.05;6.90;;;2.70;99.90;;;;;;4929217;29;20048;-71
2021/01/26 02:12:36;;;;;;;16.80;8.35;;;2.70;99.90;;;;;;4928708;29;20024;-69
2021/01/26 02:15:04;;;;;;;12.82;6.40;;;2.70;99.90;;;;;;4928853;29;20044;-70
2021/01/26 02:17:33;;;;;;;16.67;7.70;;;2.60;99.90;;;;;;4927821;29;20117;-69
2021/01/26 02:20:36;;;;;;;14.20;7.00;;;2.60;99.90;;;;;;4928465;29;20064;-69
2021/01/26 02:23:15;;;;;;;14.65;7.32;;;2.60;99.90;;;;;;4928530;29;20032;-70
2021/01/26 02:26:18;;;;;;;14.10;7.95;;;2.60;99.90;;;;;;4928661;29;20040;-72
2021/01/26 02:28:51;;;;;;;15.60;7.70;;;2.60;99.90;;;;;;4928622;29;20028;-70
2021/01/26 02:31:23;;;;;;;16.20;8.23;;;2.50;99.90;;;;;;4928501;29;20056;-70
2021/01/26 02:34:12;;;;;;;17.45;8.93;;;2.50;99.90;;;;;;4927897;29;20048;-70
2021/01/26 02:36:46;;;;;;;22.00;9.75;;;2.50;99.90;;;;;;4909741;29;20048;-70
2021/01/26 02:39:39;;;;;;;18.25;7.80;;;2.50;99.90;;;;;;4928485;29;20499;-70
2021/01/26 02:42:11;;;;;;;14.32;7.55;;;2.50;99.90;;;;;;4928550;29;20131;-70
2021/01/26 02:44:56;;;;;;;16.70;8.27;;;2.50;99.90;;;;;;4928681;29;20059;-70
2021/01/26 02:47:37;;;;;;;16.15;7.32;;;2.50;99.90;;;;;;4927989;29;20028;-70
2021/01/26 02:50:26;;;;;;;21.05;8.25;;;2.50;99.90;;;;;;4928235;29;20032;-71
2021/01/26 02:53:16;;;;;;;16.45;8.20;;;2.40;99.90;;;;;;4927992;29;20055;-72
2021/01/26 02:55:52;;;;;;;22.15;9.10;;;2.30;99.90;;;;;;4928108;29;20083;-73
2021/01/26 02:58:25;;;;;;;24.85;9.90;;;2.30;99.90;;;;;;4911078;29;20040;-73
2021/01/26 03:00:55;;;;;;;14.07;7.32;;;2.30;99.90;;;;;;4928028;29;20062;-72
2021/01/26 03:03:28;;;;;;;19.90;10.07;;;2.20;99.90;;;;;;4927934;29;20036;-72
2021/01/26 03:06:22;;;;;;;22.67;10.10;;;2.20;99.90;;;;;;4928291;29;20028;-72
2021/01/26 03:09:11;;;;;;;19.17;7.25;;;2.20;99.90;;;;;;4926320;29;20477;-73
2021/01/26 03:11:42;;;;;;;24.33;10.45;;;2.20;99.90;;;;;;4911366;29;20039;-72
2021/01/26 03:14:17;;;;;;;23.08;9.65;;;2.20;99.90;;;;;;4928055;29;20040;-72
2021/01/26 03:16:46;;;;;;;23.00;9.85;;;2.20;99.90;;;;;;4927880;29;20028;-73
2021/01/26 03:19:18;;;;;;;19.60;10.43;;;2.20;99.90;;;;;;4927915;29;20044;-73
2021/01/26 03:21:54;;;;;;;26.38;12.43;;;2.20;99.90;;;;;;4927911;29;20084;-74
2021/01/26 03:24:24;;;;;;;19.13;9.70;;;2.20;99.90;;;;;;4927767;29;20039;-73
2021/01/26 03:26:50;;;;;;;16.67;9.25;;;2.20;99.90;;;;;;4927937;29;20028;-73
2021/01/26 03:29:28;;;;;;;21.55;10.10;;;2.20;99.90;;;;;;4913607;29;20079;-73
2021/01/26 03:31:56;;;;;;;22.08;10.32;;;2.30;99.90;;;;;;4931602;29;20076;-73
2021/01/26 03:34:22;;;;;;;22.33;10.38;;;2.30;99.90;;;;;;4931267;29;20060;-73
2021/01/26 03:36:49;;;;;;;19.63;10.50;;;2.20;99.90;;;;;;4931221;29;20039;-73
2021/01/26 03:39:15;;;;;;;21.95;10.52;;;2.20;99.90;;;;;;4931616;29;20043;-73
2021/01/26 03:41:42;;;;;;;29.65;12.38;;;2.20;99.90;;;;;;4931975;29;20028;-73
2021/01/26 03:44:11;;;;;;;21.27;9.48;;;2.30;99.90;;;;;;4931387;29;20160;-73
2021/01/26 03:47:00;;;;;;;20.10;10.13;;;2.30;99.90;;;;;;4914471;29;20024;-73
2021/01/26 03:49:44;;;;;;;24.52;11.82;;;2.30;99.90;;;;;;4931409;29;20032;-73
2021/01/26 03:52:45;;;;;;;22.15;10.00;;;2.30;99.90;;;;;;4914246;29;20036;-74
2021/01/26 03:55:24;;;;;;;23.42;11.43;;;2.30;99.90;;;;;;4921442;29;20044;-73
2021/01/26 03:58:00;;;;;;;26.60;11.48;;;2.30;99.90;;;;;;4931081;29;20078;-74
2021/01/26 04:00:41;;;;;;;23.35;10.82;;;2.40;99.90;;;;;;4914304;29;20061;-74
2021/01/26 04:03:31;;;;;;;22.58;11.23;;;2.30;99.90;;;;;;4931207;29;20028;-74
2021/01/26 04:06:20;;;;;;;27.25;11.82;;;2.40;99.90;;;;;;4930773;29;20028;-73
2021/01/26 04:08:52;;;;;;;23.48;10.82;;;2.40;99.90;;;;;;4931139;29;20028;-74
2021/01/26 04:11:33;;;;;;;27.48;12.02;;;2.40;99.90;;;;;;4930768;29;20123;-73
2021/01/26 04:14:14;;;;;;;25.77;12.65;;;2.40;99.90;;;;;;4930763;29;20028;-73
2021/01/26 04:16:58;;;;;;;23.67;11.45;;;2.40;99.90;;;;;;4914155;29;20035;-74
2021/01/26 04:19:28;;;;;;;17.98;9.98;;;2.40;99.90;;;;;;4930391;29;20040;-73
2021/01/26 04:21:55;;;;;;;26.45;12.13;;;2.40;99.90;;;;;;4930971;29;20176;-73
2021/01/26 04:24:20;;;;;;;27.52;12.93;;;2.40;99.90;;;;;;4931209;29;20028;-73
2021/01/26 04:26:48;;;;;;;26.88;11.70;;;2.40;99.90;;;;;;4930498;29;20040;-73
2021/01/26 04:29:14;;;;;;;23.33;10.70;;;2.40;99.90;;;;;;4930921;29;20385;-74
2021/01/26 04:31:40;;;;;;;29.60;13.13;;;2.40;99.90;;;;;;4930655;29;20373;-73
2021/01/26 04:34:06;;;;;;;26.20;11.60;;;2.40;99.90;;;;;;4944694;29;20112;-72
2021/01/26 04:36:32;;;;;;;34.60;13.40;;;2.40;99.90;;;;;;4930730;29;20468;-72
2021/01/26 04:38:58;;;;;;;34.15;13.43;;;2.40;99.90;;;;;;4929577;29;20040;-73
2021/01/26 04:41:44;;;;;;;21.65;11.32;;;2.40;99.90;;;;;;4912691;29;20044;-71
2021/01/26 04:44:22;;;;;;;28.67;12.93;;;2.50;99.90;;;;;;4926704;29;20485;-73
2021/01/26 04:47:13;;;;;;;26.52;12.23;;;2.40;99.90;;;;;;4930190;29;20070;-72
2021/01/26 04:50:13;;;;;;;26.45;10.88;;;2.40;99.90;;;;;;4930331;29;20060;-72
2021/01/26 04:53:20;;;;;;;26.98;11.80;;;2.40;99.90;;;;;;4913463;29;20028;-73
2021/01/26 04:56:01;;;;;;;27.98;11.50;;;2.40;99.90;;;;;;4930008;29;20036;-72
2021/01/26 04:58:45;;;;;;;27.77;11.75;;;2.50;99.90;;;;;;4913042;29;20043;-72
2021/01/26 05:01:47;;;;;;;27.30;12.25;;;2.50;99.90;;;;;;4926217;29;20036;-73
2021/01/26 05:04:43;;;;;;;28.00;12.80;;;2.50;99.90;;;;;;4929845;29;20028;-73
2021/01/26 05:07:25;;;;;;;26.55;12.55;;;2.50;99.90;;;;;;4918244;29;20063;-72
2021/01/26 05:10:10;;;;;;;23.35;11.13;;;2.50;99.90;;;;;;4911034;29;20049;-73
2021/01/26 05:13:04;;;;;;;22.67;11.40;;;2.50;99.90;;;;;;4911538;29;20032;-72
2021/01/26 05:15:35;;;;;;;25.65;11.95;;;2.50;99.90;;;;;;4922940;29;20040;-72
2021/01/26 05:18:06;;;;;;;23.52;13.45;;;2.50;99.90;;;;;;4924368;29;20104;-73
2021/01/26 05:20:39;;;;;;;27.58;12.52;;;2.50;99.90;;;;;;4929296;29;20036;-72
2021/01/26 05:23:15;;;;;;;22.33;11.10;;;2.50;99.90;;;;;;4926739;29;20039;-73
2021/01/26 05:25:42;;;;;;;31.20;12.35;;;2.50;99.90;;;;;;4926114;29;20039;-73
2021/01/26 05:28:09;;;;;;;26.98;11.18;;;2.50;99.90;;;;;;4929850;29;20031;-72
2021/01/26 05:30:37;;;;;;;20.50;11.07;;;2.50;99.90;;;;;;4928957;29;20038;-72
2021/01/26 05:33:12;;;;;;;25.77;11.90;;;2.50;99.90;;;;;;4929240;29;20059;-72
2021/01/26 05:35:47;;;;;;;36.78;14.73;;;2.50;99.90;;;;;;4911039;29;20031;-72
2021/01/26 05:38:15;;;;;;;24.50;11.20;;;2.50;99.90;;;;;;4921189;29;20083;-72
2021/01/26 05:40:48;;;;;;;26.17;11.68;;;2.50;99.90;;;;;;4929620;29;20096;-73
2021/01/26 05:43:18;;;;;;;28.55;11.38;;;2.50;99.90;;;;;;4911223;29;20032;-73
2021/01/26 05:45:46;;;;;;;31.15;12.77;;;2.50;99.90;;;;;;4929406;29;20024;-72
2021/01/26 05:48:14;;;;;;;27.95;12.25;;;2.60;99.90;;;;;;4929336;29;20032;-73
2021/01/26 05:50:43;;;;;;;28.60;12.60;;;2.50;99.90;;;;;;4928999;29;20361;-74
2021/01/26 05:53:29;;;;;;;29.05;11.30;;;2.50;99.90;;;;;;4929117;29;20405;-73
2021/01/26 05:56:16;;;;;;;28.98;12.65;;;2.50;99.90;;;;;;4929231;29;20062;-73
2021/01/26 05:58:46;;;;;;;23.55;11.82;;;2.50;99.90;;;;;;4912012;29;20044;-73
2021/01/26 06:01:23;;;;;;;28.40;12.27;;;2.50;99.90;;;;;;4928975;29;20397;-75
2021/01/26 06:04:07;;;;;;;20.73;11.65;;;2.50;99.90;;;;;;4911900;29;20039;-75
2021/01/26 06:06:47;;;;;;;24.08;10.95;;;2.40;99.90;;;;;;4928606;29;20028;-74
2021/01/26 06:09:22;;;;;;;24.45;10.90;;;2.50;99.90;;;;;;4929037;29;20024;-75
2021/01/26 06:12:09;;;;;;;21.20;10.90;;;2.40;99.90;;;;;;4943212;29;20388;-75
2021/01/26 06:14:36;;;;;;;28.50;12.00;;;2.40;99.90;;;;;;4928035;29;20066;-74
2021/01/26 06:17:10;;;;;;;21.98;12.30;;;2.40;99.90;;;;;;4910124;29;20032;-74
2021/01/26 06:19:36;;;;;;;23.65;10.88;;;2.40;99.90;;;;;;4926641;29;20477;-74
2021/01/26 06:22:01;;;;;;;25.75;12.63;;;2.40;99.90;;;;;;4928381;29;20062;-74
2021/01/26 06:24:33;;;;;;;21.63;10.75;;;2.40;99.90;;;;;;4928277;29;20182;-73
2021/01/26 06:27:15;;;;;;;25.80;12.85;;;2.40;99.90;;;;;;4928360;29;20035;-72
2021/01/26 06:30:24;;;;;;;25.33;11.50;;;2.30;99.90;;;;;;4928928;29;20488;-74
2021/01/26 06:32:49;;;;;;;18.90;9.50;;;2.30;99.90;;;;;;4919346;29;20048;-74
2021/01/26 06:35:37;;;;;;;25.60;11.02;;;2.30;99.90;;;;;;4928294;29;20048;-74
2021/01/26 06:38:30;;;;;;;28.30;11.15;;;2.30;99.90;;;;;;4911309;29;20036;-74
2021/01/26 06:41:37;;;;;;;29.30;12.00;;;2.30;99.90;;;;;;4906952;29;20040;-73
2021/01/26 06:44:52;;;;;;;26.02;9.40;;;2.30;99.90;;;;;;4922715;29;20044;-74
2021/01/26 06:47:42;;;;;;;26.10;11.85;;;2.20;99.90;;;;;;4920192;29;20052;-74
2021/01/26 06:50:08;;;;;;;23.02;11.43;;;2.20;99.90;;;;;;4927878;29;20024;-73
2021/01/26 06:52:56;;;;;;;27.40;11.63;;;2.20;99.90;;;;;;4910372;29;20043;-73
2021/01/26 06:55:45;;;;;;;24.23;12.30;;;2.10;99.90;;;;;;4927200;29;20021;-74
2021/01/26 06:58:46;;;;;;;24.75;12.32;;;2.20;99.90;;;;;;4927377;29;20046;-74
2021/01/26 07:01:45;;;;;;;26.45;12.15;;;2.20;99.90;;;;;;4927300;29;20092;-75
2021/01/26 07:04:37;;;;;;;23.00;9.80;;;2.10;99.90;;;;;;4918991;29;20095;-74
2021/01/26 07:07:40;;;;;;;22.67;11.15;;;2.10;99.90;;;;;;4927390;29;20063;-74
2021/01/26 07:10:24;;;;;;;24.20;11.63;;;2.10;99.90;;;;;;4927547;29;20080;-73
2021/01/26 07:13:17;;;;;;;28.17;12.25;;;2.10;99.90;;;;;;4927356;29;20077;-73
2021/01/26 07:16:14;;;;;;;23.38;11.02;;;2.10;99.90;;;;;;4927719;29;20056;-74
2021/01/26 07:19:08;;;;;;;21.00;10.63;;;2.10;99.90;;;;;;4927738;29;20095;-74
2021/01/26 07:22:07;;;;;;;23.27;10.98;;;2.10;99.90;;;;;;4910216;29;20033;-74
2021/01/26 07:25:11;;;;;;;28.35;10.45;;;2.20;99.90;;;;;;4927421;29;20074;-73
2021/01/26 07:28:04;;;;;;;29.02;11.52;;;2.10;99.90;;;;;;4927519;29;20047;-75
2021/01/26 07:30:34;;;;;;;23.52;11.80;;;2.10;99.90;;;;;;4927401;29;20041;-74
2021/01/26 07:33:25;;;;;;;22.38;12.23;;;2.10;99.90;;;;;;4941940;29;20032;-73
2021/01/26 07:36:05;;;;;;;21.65;11.52;;;2.10;99.90;;;;;;4927272;29;20040;-73
2021/01/26 07:38:34;;;;;;;25.75;11.95;;;2.10;99.90;;;;;;4927638;29;20044;-73
2021/01/26 07:41:17;;;;;;;18.98;9.77;;;2.10;99.90;;;;;;4909405;29;20036;-74
2021/01/26 07:43:48;;;;;;;29.95;12.70;;;2.10;99.90;;;;;;4927388;29;20039;-73
2021/01/26 07:46:41;;;;;;;29.05;12.20;;;2.10;99.90;;;;;;4910611;29;20124;-74
2021/01/26 07:49:28;;;;;;;30.50;12.05;;;2.10;99.90;;;;;;4927218;29;20035;-73
2021/01/26 07:52:01;;;;;;;27.25;12.18;;;2.20;99.90;;;;;;4927302;29;20063;-74
2021/01/26 07:54:35;;;;;;;24.08;11.40;;;2.20;99.90;;;;;;4910315;29;20393;-74
2021/01/26 07:57:03;;;;;;;28.42;13.55;;;2.20;99.90;;;;;;4927127;29;20033;-73
2021/01/26 07:59:35;;;;;;;22.25;10.88;;;2.20;99.90;;;;;;4910154;29;20052;-73
2021/01/26 08:02:05;;;;;;;30.42;12.07;;;2.30;99.90;;;;;;4927433;29;20064;-73
2021/01/26 08:04:40;;;;;;;26.35;11.50;;;2.30;99.90;;;;;;4925643;29;20095;-73
2021/01/26 08:07:08;;;;;;;28.30;12.85;;;2.30;99.90;;;;;;4927416;29;20038;-73
2021/01/26 08:09:45;;;;;;;22.77;10.88;;;2.30;99.90;;;;;;4927088;29;20498;-73
2021/01/26 08:12:15;;;;;;;19.63;10.05;;;2.30;99.90;;;;;;4927178;29;20032;-74
2021/01/26 08:14:54;;;;;;;25.52;10.93;;;2.30;99.90;;;;;;4929443;29;20133;-74
2021/01/26 08:17:34;;;;;;;21.85;10.27;;;2.30;99.90;;;;;;4930216;29;20040;-75
2021/01/26 08:20:09;;;;;;;29.88;12.88;;;2.40;99.90;;;;;;4913493;29;20048;-73
2021/01/26 08:22:38;;;;;;;26.23;10.77;;;2.30;99.90;;;;;;4930354;29;20428;-73
2021/01/26 08:25:12;;;;;;;27.88;10.50;;;2.40;99.90;;;;;;4929756;29;20035;-73
2021/01/26 08:27:38;;;;;;;24.48;11.07;;;2.40;99.90;;;;;;4930554;29;20021;-73
2021/01/26 08:30:13;;;;;;;22.08;10.70;;;2.50;99.90;;;;;;4930194;29;20062;-74
2021/01/26 08:32:38;;;;;;;21.27;10.77;;;2.90;99.90;;;;;;4930619;29;20032;-73
2021/01/26 08:35:34;;;;;;;21.10;9.18;;;3.30;99.90;;;;;;4930400;29;20125;-74
2021/01/26 08:38:03;;;;;;;14.95;8.07;;;3.70;99.90;;;;;;4917856;29;20040;-73
2021/01/26 08:40:28;;;;;;;15.93;7.95;;;4.10;99.90;;;;;;4930235;29;20036;-74
2021/01/26 08:43:05;;;;;;;17.65;8.05;;;4.40;99.90;;;;;;4930445;29;20028;-73
2021/01/26 08:45:31;;;;;;;14.40;8.10;;;4.70;99.90;;;;;;4930419;29;20028;-73
2021/01/26 08:47:58;;;;;;;16.80;7.30;;;4.90;99.90;;;;;;4932673;29;20024;-74
2021/01/26 08:50:42;;;;;;;17.65;6.97;;;5.00;99.90;;;;;;4913184;29;20025;-73
2021/01/26 08:53:21;;;;;;;17.48;7.88;;;5.10;99.90;;;;;;4930370;29;20044;-74
2021/01/26 08:56:02;;;;;;;16.30;7.43;;;5.20;99.90;;;;;;4913039;29;20560;-74
2021/01/26 08:58:48;;;;;;;10.32;6.55;;;5.20;99.90;;;;;;4910351;29;20044;-73
2021/01/26 09:01:23;;;;;;;12.70;5.93;;;5.50;99.90;;;;;;4929193;29;20032;-73
2021/01/26 09:03:53;;;;;;;12.80;7.05;;;5.70;99.90;;;;;;4928406;29;20039;-74
2021/01/26 09:06:38;;;;;;;12.75;6.35;;;6.00;99.90;;;;;;4910893;29;20047;-74
2021/01/26 09:09:04;;;;;;;9.77;5.72;;;6.10;99.90;;;;;;4927897;29;20039;-72
2021/01/26 09:11:45;;;;;;;13.73;7.45;;;6.20;99.90;;;;;;4929407;29;20036;-73
2021/01/26 09:14:34;;;;;;;12.77;5.75;;;6.10;99.90;;;;;;4927319;29;20032;-74
2021/01/26 09:17:25;;;;;;;12.32;6.65;;;6.00;99.90;;;;;;4910455;29;20048;-74
2021/01/26 09:19:55;;;;;;;11.25;6.03;;;5.80;99.90;;;;;;4928559;29;20040;-73
2021/01/26 09:22:28;;;;;;;14.93;6.45;;;5.70;99.90;;;;;;4911320;29;20084;-72
2021/01/26 09:25:18;;;;;;;17.15;7.82;;;5.60;99.90;;;;;;4929479;29;20032;-73
2021/01/26 09:27:55;;;;;;;15.73;7.60;;;5.60;99.90;;;;;;4928302;29;20033;-72
2021/01/26 09:30:23;;;;;;;13.65;6.88;;;5.60;99.90;;;;;;4928534;29;20047;-73
2021/01/26 09:33:02;;;;;;;14.75;5.78;;;5.60;99.90;;;;;;4928835;29;20028;-73
2021/01/26 09:35:37;;;;;;;15.13;6.55;;;5.80;99.90;;;;;;4911230;29;20043;-72
2021/01/26 09:38:05;;;;;;;14.07;6.78;;;6.10;99.90;;;;;;4928736;29;20044;-72
2021/01/26 09:40:31;;;;;;;17.23;6.78;;;6.40;99.90;;;;;;4911685;29;20095;-72
2021/01/26 09:43:18;;;;;;;11.15;5.40;;;6.60;99.90;;;;;;4911638;29;20052;-72
2021/01/26 09:45:45;;;;;;;12.65;6.72;;;6.70;99.90;;;;;;4874590;29;20041;-72
2021/01/26 09:48:24;;;;;;;16.92;6.57;;;6.80;99.90;;;;;;4890918;29;20101;-73
2021/01/26 09:50:50;;;;;;;12.18;6.85;;;7.20;99.90;;;;;;4888990;29;20045;-73
2021/01/26 09:53:21;;;;;;;10.57;5.80;;;7.60;99.90;;;;;;4891171;29;20060;-74
2021/01/26 09:55:53;;;;;;;10.90;5.95;;;7.70;99.90;;;;;;4873924;29;20374;-73
2021/01/26 09:58:19;;;;;;;10.27;5.75;;;7.90;99.90;;;;;;4897771;29;20032;-72
2021/01/26 10:00:45;;;;;;;11.52;5.53;;;8.10;99.90;;;;;;4909772;29;20041;-73
2021/01/26 10:03:12;;;;;;;24.08;10.65;;;8.10;99.90;;;;;;4892179;29;20064;-72
2021/01/26 10:05:38;;;;;;;31.67;15.75;;;8.20;99.90;;;;;;4909432;29;20047;-72
2021/01/26 10:08:06;;;;;;;18.50;9.80;;;8.30;99.90;;;;;;4909592;29;20033;-72
2021/01/26 10:10:32;;;;;;;22.27;10.68;;;7.70;99.90;;;;;;4908848;29;20036;-72
2021/01/26 10:13:38;;;;;;;16.48;7.55;;;6.90;99.90;;;;;;4908818;29;20056;-73
2021/01/26 10:16:27;;;;;;;15.57;7.85;;;6.20;99.90;;;;;;4891649;29;20377;-72
2021/01/26 10:18:54;;;;;;;15.20;7.25;;;5.80;99.90;;;;;;4908911;29;20428;-72
2021/01/26 10:21:29;;;;;;;20.73;8.98;;;5.50;99.90;;;;;;4909042;29;20049;-72
2021/01/26 10:24:01;;;;;;;19.63;8.27;;;5.50;99.90;;;;;;4908671;29;20040;-73
2021/01/26 10:26:30;;;;;;;13.88;6.68;;;5.30;99.90;;;;;;4908772;29;20477;-72
2021/01/26 10:29:06;;;;;;;21.20;10.70;;;5.20;99.90;;;;;;4909156;29;20025;-71
2021/01/26 10:31:53;;;;;;;20.92;9.43;;;4.90;99.90;;;;;;4908575;29;20036;-72
2021/01/26 10:34:31;;;;;;;22.48;11.05;;;4.90;99.90;;;;;;4921279;29;20059;-73
2021/01/26 10:37:12;;;;;;;26.70;11.52;;;4.90;99.90;;;;;;4909824;29;20068;-72
2021/01/26 10:39:37;;;;;;;25.52;10.45;;;5.00;99.90;;;;;;4910530;29;20056;-72
2021/01/26 10:42:20;;;;;;;21.77;10.48;;;5.00;99.90;;;;;;4927737;29;20083;-70
2021/01/26 10:44:54;;;;;;;20.70;9.77;;;5.10;99.90;;;;;;4927701;29;20032;-73
2021/01/26 10:47:31;;;;;;;22.50;10.52;;;5.10;99.90;;;;;;4928252;29;20021;-73
2021/01/26 10:50:00;;;;;;;22.15;10.90;;;5.10;99.90;;;;;;4927488;29;20028;-73
2021/01/26 10:52:42;;;;;;;23.20;8.85;;;5.10;99.90;;;;;;4909856;29;20112;-72
2021/01/26 10:55:13;;;;;;;23.92;9.32;;;5.00;99.90;;;;;;4927393;29;20032;-72
2021/01/26 10:57:41;;;;;;;22.02;8.27;;;4.90;99.90;;;;;;4927003;29;20377;-73
2021/01/26 11:00:09;;;;;;;16.85;8.63;;;5.00;99.90;;;;;;4925037;29;20054;-71
2021/01/26 11:02:36;;;;;;;21.42;8.77;;;5.00;99.90;;;;;;4927688;29;20055;-72
2021/01/26 11:05:01;;;;;;;18.00;8.65;;;5.00;99.90;;;;;;4927378;29;20052;-72
2021/01/26 11:07:27;;;;;;;12.05;6.38;;;5.10;99.90;;;;;;4909993;29;20036;-72
2021/01/26 11:09:53;;;;;;;19.35;8.27;;;5.10;99.90;;;;;;4927546;29;20047;-72
2021/01/26 11:12:19;;;;;;;15.52;6.25;;;5.40;99.90;;;;;;4927572;29;20032;-73
2021/01/26 11:14:46;;;;;;;18.50;9.32;;;6.20;99.90;;;;;;4909960;29;20487;-73
2021/01/26 11:17:13;;;;;;;13.20;6.50;;;6.50;99.90;;;;;;4910436;29;20028;-72
2021/01/26 11:19:42;;;;;;;11.68;5.32;;;7.00;99.90;;;;;;4927189;29;20104;-72
2021/01/26 11:22:09;;;;;;;9.50;5.90;;;7.50;99.90;;;;;;4926774;29;20071;-72
2021/01/26 11:24:36;;;;;;;8.63;5.15;;;8.10;99.90;;;;;;4926337;29;20389;-72
2021/01/26 11:27:01;;;;;;;11.02;5.65;;;8.80;99.90;;;;;;4941180;29;20108;-72
2021/01/26 11:29:27;;;;;;;10.13;4.63;;;9.10;99.90;;;;;;4927121;29;20029;-72
2021/01/26 11:31:53;;;;;;;9.25;5.05;;;9.60;99.90;;;;;;4926235;29;20047;-72
2021/01/26 11:34:19;;;;;;;12.50;5.57;;;9.50;99.90;;;;;;4926692;29;20048;-72
2021/01/26 11:36:45;;;;;;;6.57;4.00;;;9.30;99.90;;;;;;4927139;29;20046;-73
2021/01/26 11:39:11;;;;;;;10.13;4.90;;;9.40;99.90;;;;;;4927179;29;20048;-73
2021/01/26 11:41:36;;;;;;;10.38;4.57;;;9.50;99.90;;;;;;4927136;29;20039;-72
2021/01/26 11:44:02;;;;;;;12.23;4.32;;;9.60;99.90;;;;;;4927029;29;20052;-72
2021/01/26 11:46:28;;;;;;;7.22;5.07;;;9.40;99.90;;;;;;4927174;29;20155;-72
2021/01/26 11:48:53;;;;;;;8.18;4.00;;;8.90;99.90;;;;;;4927642;29;20036;-72
2021/01/26 11:51:19;;;;;;;8.35;4.65;;;8.50;99.90;;;;;;4930688;29;20032;-73
2021/01/26 11:53:45;;;;;;;7.72;4.82;;;8.60;99.90;;;;;;4931037;29;20024;-72
2021/01/26 11:56:19;;;;;;;8.70;3.58;;;9.20;99.90;;;;;;4930578;29;20438;-74
2021/01/26 11:58:46;;;;;;;5.60;3.25;;;9.90;99.90;;;;;;4930468;29;20040;-74
2021/01/26 12:01:11;;;;;;;6.35;3.00;;;10.40;99.90;;;;;;4929907;29;20067;-73
2021/01/26 12:03:37;;;;;;;5.95;3.30;;;10.60;99.90;;;;;;4930355;29;20056;-72
2021/01/26 12:06:03;;;;;;;5.28;2.90;;;10.50;99.90;;;;;;4930768;29;20134;-72
2021/01/26 12:08:29;;;;;;;8.20;2.90;;;9.80;99.90;;;;;;4930424;29;20032;-73
2021/01/26 12:10:54;;;;;;;7.60;3.70;;;9.70;99.90;;;;;;4930095;29;20135;-73
2021/01/26 12:13:21;;;;;;;6.97;3.17;;;9.70;99.90;;;;;;4929686;29;20039;-72
2021/01/26 12:15:47;;;;;;;6.68;2.60;;;9.90;99.90;;;;;;4930216;29;20032;-73
2021/01/26 12:18:13;;;;;;;4.53;2.78;;;9.50;99.90;;;;;;4929517;29;20462;-74
2021/01/26 12:20:40;;;;;;;4.07;2.65;;;9.50;99.90;;;;;;4929437;29;20055;-72
2021/01/26 12:23:06;;;;;;;5.32;2.65;;;9.40;99.90;;;;;;4929724;29;20793;-73
2021/01/26 12:25:33;;;;;;;4.68;3.05;;;9.20;99.90;;;;;;4928937;29;20032;-74
2021/01/26 12:27:59;;;;;;;10.13;3.40;;;9.00;99.90;;;;;;4929819;29;20039;-72
2021/01/26 12:30:26;;;;;;;12.48;3.55;;;8.50;99.90;;;;;;4929632;29;20029;-73
2021/01/26 12:32:52;;;;;;;6.60;3.05;;;8.10;99.90;;;;;;4928724;29;20508;-72
2021/01/26 12:35:27;;;;;;;7.45;3.97;;;7.70;99.90;;;;;;4929625;29;20036;-72
2021/01/26 12:37:53;;;;;;;7.50;3.10;;;7.50;99.90;;;;;;4929761;29;20028;-72
2021/01/26 12:40:19;;;;;;;6.68;3.05;;;7.20;99.90;;;;;;4930209;29;20370;-72
2021/01/26 12:42:45;;;;;;;5.35;3.00;;;7.10;99.90;;;;;;4929997;29;20032;-72
2021/01/26 12:45:14;;;;;;;9.77;3.45;;;7.00;99.90;;;;;;4930072;29;20043;-73
2021/01/26 12:47:40;;;;;;;4.82;2.80;;;7.10;99.90;;;;;;4930479;29;20063;-73
2021/01/26 12:50:08;;;;;;;4.15;2.13;;;7.50;99.90;;;;;;4912768;29;20068;-73
2021/01/26 12:52:34;;;;;;;7.13;3.33;;;7.80;99.90;;;;;;4929844;29;20496;-72
2021/01/26 12:55:00;;;;;;;7.20;3.03;;;8.20;99.90;;;;;;4929729;29;20035;-72
2021/01/26 12:57:25;;;;;;;4.93;2.53;;;8.50;99.90;;;;;;4930007;29;20032;-72
2021/01/26 12:59:52;;;;;;;3.97;2.40;;;8.50;99.90;;;;;;4929377;29;20044;-72
2021/01/26 13:02:21;;;;;;;2.80;2.00;;;8.10;99.90;;;;;;4929576;29;20050;-73
2021/01/26 13:04:47;;;;;;;6.43;3.03;;;7.80;99.90;;;;;;4930133;29;20034;-72
2021/01/26 13:07:13;;;;;;;3.08;1.98;;;7.70;99.90;;;;;;4929487;29;20059;-72
2021/01/26 13:09:40;;;;;;;3.65;2.35;;;8.00;99.90;;;;;;4929876;29;20056;-71
2021/01/26 13:12:06;;;;;;;2.67;1.30;;;8.10;99.90;;;;;;4929156;29;20032;-72
2021/01/26 13:14:32;;;;;;;2.70;1.70;;;8.50;99.90;;;;;;4928689;29;20125;-71
2021/01/26 13:16:57;;;;;;;2.60;1.33;;;9.10;99.90;;;;;;4928856;29;20032;-72